sensor_id;sensor_type;location;lat;lon;timestamp;temperature;humidity
78467;SHT31;67759;51.972;5.650;2023-07-31T00:00:18;20.2;65.9
78467;SHT31;67759;51.972;5.650;2023-07-31T00:02:47;20.2;65.7
78467;SHT31;67759;51.972;5.650;2023-07-31T00:05:17;20.2;65.6
78467;SHT31;67759;51.972;5.650;2023-07-31T00:07:49;20.3;65.4
78467;SHT31;67759;51.972;5.650;2023-07-31T00:10:18;20.3;65.3
78467;SHT31;67759;51.972;5.650;2023-07-31T00:12:51;20.3;65.4
78467;SHT31;67759;51.972;5.650;2023-07-31T00:15:21;20.3;65.7
78467;SHT31;67759;51.972;5.650;2023-07-31T00:17:50;20.3;66.0
78467;SHT31;67759;51.972;5.650;2023-07-31T00:20:20;20.3;66.4
78467;SHT31;67759;51.972;5.650;2023-07-31T00:22:51;20.3;66.4
78467;SHT31;67759;51.972;5.650;2023-07-31T00:25:21;20.4;66.4
78467;SHT31;67759;51.972;5.650;2023-07-31T00:27:50;20.4;66.6
78467;SHT31;67759;51.972;5.650;2023-07-31T00:30:20;20.5;66.8
78467;SHT31;67759;51.972;5.650;2023-07-31T00:32:51;20.5;66.6
78467;SHT31;67759;51.972;5.650;2023-07-31T00:35:21;20.6;66.5
78467;SHT31;67759;51.972;5.650;2023-07-31T00:37:51;20.6;66.6
78467;SHT31;67759;51.972;5.650;2023-07-31T00:40:22;20.7;66.8
78467;SHT31;67759;51.972;5.650;2023-07-31T00:42:52;20.7;66.8
78467;SHT31;67759;51.972;5.650;2023-07-31T00:45:22;20.8;66.9
78467;SHT31;67759;51.972;5.650;2023-07-31T00:47:56;20.9;67.0
78467;SHT31;67759;51.972;5.650;2023-07-31T00:50:27;20.9;66.9
78467;SHT31;67759;51.972;5.650;2023-07-31T00:52:59;21.0;66.7
78467;SHT31;67759;51.972;5.650;2023-07-31T00:55:29;21.0;66.6
78467;SHT31;67759;51.972;5.650;2023-07-31T00:57:59;21.1;66.6
78467;SHT31;67759;51.972;5.650;2023-07-31T01:00:28;21.1;66.3
78467;SHT31;67759;51.972;5.650;2023-07-31T01:02:58;21.2;66.2
78467;SHT31;67759;51.972;5.650;2023-07-31T01:05:43;21.2;65.9
78467;SHT31;67759;51.972;5.650;2023-07-31T01:08:24;21.3;65.7
78467;SHT31;67759;51.972;5.650;2023-07-31T01:11:05;21.3;65.7
78467;SHT31;67759;51.972;5.650;2023-07-31T01:13:35;21.3;65.7
78467;SHT31;67759;51.972;5.650;2023-07-31T01:16:07;21.4;65.6
78467;SHT31;67759;51.972;5.650;2023-07-31T01:18:40;21.4;65.5
78467;SHT31;67759;51.972;5.650;2023-07-31T01:21:22;21.5;65.2
78467;SHT31;67759;51.972;5.650;2023-07-31T01:24:22;21.5;64.8
78467;SHT31;67759;51.972;5.650;2023-07-31T01:26:57;21.6;64.5
78467;SHT31;67759;51.972;5.650;2023-07-31T01:29:39;21.6;64.3
78467;SHT31;67759;51.972;5.650;2023-07-31T01:32:13;21.6;64.2
78467;SHT31;67759;51.972;5.650;2023-07-31T01:34:45;21.7;64.2
78467;SHT31;67759;51.972;5.650;2023-07-31T01:37:16;21.7;64.1
78467;SHT31;67759;51.972;5.650;2023-07-31T01:39:46;21.7;63.9
78467;SHT31;67759;51.972;5.650;2023-07-31T01:42:16;21.8;63.6
78467;SHT31;67759;51.972;5.650;2023-07-31T01:44:46;21.8;63.3
78467;SHT31;67759;51.972;5.650;2023-07-31T01:47:15;21.8;63.4
78467;SHT31;67759;51.972;5.650;2023-07-31T01:49:45;21.8;63.6
78467;SHT31;67759;51.972;5.650;2023-07-31T01:52:14;21.8;63.5
78467;SHT31;67759;51.972;5.650;2023-07-31T01:54:44;21.8;63.2
78467;SHT31;67759;51.972;5.650;2023-07-31T01:57:13;21.9;63.1
78467;SHT31;67759;51.972;5.650;2023-07-31T01:59:43;21.9;62.9
78467;SHT31;67759;51.972;5.650;2023-07-31T02:02:13;21.9;63.0
78467;SHT31;67759;51.972;5.650;2023-07-31T02:04:43;21.9;62.8
78467;SHT31;67759;51.972;5.650;2023-07-31T02:07:16;21.9;63.1
78467;SHT31;67759;51.972;5.650;2023-07-31T02:09:46;21.9;63.2
78467;SHT31;67759;51.972;5.650;2023-07-31T02:12:17;21.8;63.3
78467;SHT31;67759;51.972;5.650;2023-07-31T02:14:47;21.8;63.5
78467;SHT31;67759;51.972;5.650;2023-07-31T02:17:17;21.7;63.7
78467;SHT31;67759;51.972;5.650;2023-07-31T02:19:48;21.6;64.3
78467;SHT31;67759;51.972;5.650;2023-07-31T02:22:17;21.5;64.7
78467;SHT31;67759;51.972;5.650;2023-07-31T02:24:48;21.5;64.5
78467;SHT31;67759;51.972;5.650;2023-07-31T02:27:17;21.4;64.9
78467;SHT31;67759;51.972;5.650;2023-07-31T02:29:51;21.4;65.2
78467;SHT31;67759;51.972;5.650;2023-07-31T02:32:23;21.3;65.3
78467;SHT31;67759;51.972;5.650;2023-07-31T02:34:53;21.3;65.3
78467;SHT31;67759;51.972;5.650;2023-07-31T02:37:27;21.3;65.2
78467;SHT31;67759;51.972;5.650;2023-07-31T02:39:57;21.2;64.9
78467;SHT31;67759;51.972;5.650;2023-07-31T02:42:28;21.2;64.7
78467;SHT31;67759;51.972;5.650;2023-07-31T02:44:57;21.2;65.1
78467;SHT31;67759;51.972;5.650;2023-07-31T02:47:27;21.2;65.2
78467;SHT31;67759;51.972;5.650;2023-07-31T02:49:56;21.2;65.1
78467;SHT31;67759;51.972;5.650;2023-07-31T02:52:27;21.2;64.9
78467;SHT31;67759;51.972;5.650;2023-07-31T02:54:58;21.2;64.9
78467;SHT31;67759;51.972;5.650;2023-07-31T02:57:28;21.2;64.9
78467;SHT31;67759;51.972;5.650;2023-07-31T02:59:58;21.2;64.5
78467;SHT31;67759;51.972;5.650;2023-07-31T03:02:27;21.2;64.8
78467;SHT31;67759;51.972;5.650;2023-07-31T03:04:57;21.2;64.5
78467;SHT31;67759;51.972;5.650;2023-07-31T03:07:27;21.3;64.1
78467;SHT31;67759;51.972;5.650;2023-07-31T03:09:57;21.3;63.8
78467;SHT31;67759;51.972;5.650;2023-07-31T03:12:27;21.3;63.7
78467;SHT31;67759;51.972;5.650;2023-07-31T03:14:57;21.3;63.7
78467;SHT31;67759;51.972;5.650;2023-07-31T03:17:26;21.3;63.6
78467;SHT31;67759;51.972;5.650;2023-07-31T03:19:56;21.3;63.4
78467;SHT31;67759;51.972;5.650;2023-07-31T03:22:26;21.3;63.2
78467;SHT31;67759;51.972;5.650;2023-07-31T03:24:55;21.4;63.1
78467;SHT31;67759;51.972;5.650;2023-07-31T03:27:25;21.4;62.7
78467;SHT31;67759;51.972;5.650;2023-07-31T03:29:55;21.4;62.8
78467;SHT31;67759;51.972;5.650;2023-07-31T03:32:25;21.4;62.5
78467;SHT31;67759;51.972;5.650;2023-07-31T03:34:55;21.4;62.6
78467;SHT31;67759;51.972;5.650;2023-07-31T03:37:24;21.4;62.6
78467;SHT31;67759;51.972;5.650;2023-07-31T03:39:54;21.4;62.5
78467;SHT31;67759;51.972;5.650;2023-07-31T03:42:23;21.4;62.3
78467;SHT31;67759;51.972;5.650;2023-07-31T03:44:53;21.4;62.2
78467;SHT31;67759;51.972;5.650;2023-07-31T03:47:23;21.5;62.0
78467;SHT31;67759;51.972;5.650;2023-07-31T03:49:53;21.5;61.8
78467;SHT31;67759;51.972;5.650;2023-07-31T03:52:22;21.6;61.6
78467;SHT31;67759;51.972;5.650;2023-07-31T03:54:52;21.7;61.2
78467;SHT31;67759;51.972;5.650;2023-07-31T03:57:21;21.8;61.1
78467;SHT31;67759;51.972;5.650;2023-07-31T03:59:51;21.8;60.9
78467;SHT31;67759;51.972;5.650;2023-07-31T04:02:20;21.9;60.2
78467;SHT31;67759;51.972;5.650;2023-07-31T04:04:50;22.0;59.9
78467;SHT31;67759;51.972;5.650;2023-07-31T04:07:20;22.0;59.7
78467;SHT31;67759;51.972;5.650;2023-07-31T04:09:49;22.0;59.5
78467;SHT31;67759;51.972;5.650;2023-07-31T04:12:19;22.1;59.2
78467;SHT31;67759;51.972;5.650;2023-07-31T04:14:49;22.1;59.1
78467;SHT31;67759;51.972;5.650;2023-07-31T04:17:19;22.1;59.1
78467;SHT31;67759;51.972;5.650;2023-07-31T04:19:49;22.1;59.0
78467;SHT31;67759;51.972;5.650;2023-07-31T04:22:18;22.0;59.1
78467;SHT31;67759;51.972;5.650;2023-07-31T04:24:48;22.0;59.2
78467;SHT31;67759;51.972;5.650;2023-07-31T04:27:18;22.1;59.1
78467;SHT31;67759;51.972;5.650;2023-07-31T04:29:47;22.1;59.1
78467;SHT31;67759;51.972;5.650;2023-07-31T04:32:19;22.2;58.7
78467;SHT31;67759;51.972;5.650;2023-07-31T04:34:50;22.2;58.7
78467;SHT31;67759;51.972;5.650;2023-07-31T04:37:22;22.3;58.5
78467;SHT31;67759;51.972;5.650;2023-07-31T04:39:52;22.4;58.5
78467;SHT31;67759;51.972;5.650;2023-07-31T04:42:22;22.6;58.0
78467;SHT31;67759;51.972;5.650;2023-07-31T04:44:51;22.8;57.3
78467;SHT31;67759;51.972;5.650;2023-07-31T04:47:24;23.0;56.5
78467;SHT31;67759;51.972;5.650;2023-07-31T04:49:53;23.2;55.5
78467;SHT31;67759;51.972;5.650;2023-07-31T04:52:23;23.3;55.2
78467;SHT31;67759;51.972;5.650;2023-07-31T04:54:53;23.3;54.9
78467;SHT31;67759;51.972;5.650;2023-07-31T04:57:23;23.3;55.1
78467;SHT31;67759;51.972;5.650;2023-07-31T04:59:52;23.2;55.2
78467;SHT31;67759;51.972;5.650;2023-07-31T05:02:22;23.2;55.6
78467;SHT31;67759;51.972;5.650;2023-07-31T05:04:52;23.1;55.6
78467;SHT31;67759;51.972;5.650;2023-07-31T05:07:21;23.0;55.9
78467;SHT31;67759;51.972;5.650;2023-07-31T05:09:53;22.9;56.3
78467;SHT31;67759;51.972;5.650;2023-07-31T05:12:22;22.9;56.5
78467;SHT31;67759;51.972;5.650;2023-07-31T05:14:52;22.8;56.7
78467;SHT31;67759;51.972;5.650;2023-07-31T05:17:21;22.7;57.0
78467;SHT31;67759;51.972;5.650;2023-07-31T05:19:51;22.6;57.6
78467;SHT31;67759;51.972;5.650;2023-07-31T05:22:20;22.5;58.1
78467;SHT31;67759;51.972;5.650;2023-07-31T05:24:50;22.3;58.7
78467;SHT31;67759;51.972;5.650;2023-07-31T05:27:21;22.2;59.3
78467;SHT31;67759;51.972;5.650;2023-07-31T05:29:51;22.1;59.7
78467;SHT31;67759;51.972;5.650;2023-07-31T05:32:20;22.1;60.0
78467;SHT31;67759;51.972;5.650;2023-07-31T05:34:52;22.0;60.4
78467;SHT31;67759;51.972;5.650;2023-07-31T05:37:23;21.9;60.7
78467;SHT31;67759;51.972;5.650;2023-07-31T05:39:54;21.9;61.3
78467;SHT31;67759;51.972;5.650;2023-07-31T05:42:25;21.8;61.5
78467;SHT31;67759;51.972;5.650;2023-07-31T05:44:54;21.7;61.7
78467;SHT31;67759;51.972;5.650;2023-07-31T05:47:24;21.6;62.0
78467;SHT31;67759;51.972;5.650;2023-07-31T05:49:55;21.5;62.6
78467;SHT31;67759;51.972;5.650;2023-07-31T05:52:25;21.4;62.9
78467;SHT31;67759;51.972;5.650;2023-07-31T05:54:56;21.3;63.3
78467;SHT31;67759;51.972;5.650;2023-07-31T05:57:25;21.2;63.8
78467;SHT31;67759;51.972;5.650;2023-07-31T05:59:55;21.1;64.3
78467;SHT31;67759;51.972;5.650;2023-07-31T06:02:25;21.1;64.5
78467;SHT31;67759;51.972;5.650;2023-07-31T06:04:54;21.0;65.0
78467;SHT31;67759;51.972;5.650;2023-07-31T06:07:24;21.0;65.1
78467;SHT31;67759;51.972;5.650;2023-07-31T06:09:53;20.9;65.3
78467;SHT31;67759;51.972;5.650;2023-07-31T06:12:25;20.9;65.7
78467;SHT31;67759;51.972;5.650;2023-07-31T06:14:54;20.9;65.9
78467;SHT31;67759;51.972;5.650;2023-07-31T06:17:24;20.9;66.2
78467;SHT31;67759;51.972;5.650;2023-07-31T06:19:57;20.9;66.5
78467;SHT31;67759;51.972;5.650;2023-07-31T06:22:26;20.9;66.7
78467;SHT31;67759;51.972;5.650;2023-07-31T06:24:56;20.9;66.8
78467;SHT31;67759;51.972;5.650;2023-07-31T06:27:25;20.9;66.7
78467;SHT31;67759;51.972;5.650;2023-07-31T06:29:55;20.9;66.7
78467;SHT31;67759;51.972;5.650;2023-07-31T06:32:25;20.9;66.9
78467;SHT31;67759;51.972;5.650;2023-07-31T06:34:55;20.9;66.9
78467;SHT31;67759;51.972;5.650;2023-07-31T06:37:24;20.9;66.8
78467;SHT31;67759;51.972;5.650;2023-07-31T06:39:54;20.9;66.8
78467;SHT31;67759;51.972;5.650;2023-07-31T06:42:26;20.9;66.8
78467;SHT31;67759;51.972;5.650;2023-07-31T06:44:56;20.9;67.0
78467;SHT31;67759;51.972;5.650;2023-07-31T06:47:26;20.9;67.0
78467;SHT31;67759;51.972;5.650;2023-07-31T06:49:55;21.0;67.2
78467;SHT31;67759;51.972;5.650;2023-07-31T06:52:25;21.0;67.1
78467;SHT31;67759;51.972;5.650;2023-07-31T06:55:14;21.0;67.0
78467;SHT31;67759;51.972;5.650;2023-07-31T06:57:40;21.0;66.8
78467;SHT31;67759;51.972;5.650;2023-07-31T07:00:11;21.1;67.1
78467;SHT31;67759;51.972;5.650;2023-07-31T07:02:41;21.1;67.1
78467;SHT31;67759;51.972;5.650;2023-07-31T07:05:10;21.1;67.2
78467;SHT31;67759;51.972;5.650;2023-07-31T07:07:42;21.2;67.2
78467;SHT31;67759;51.972;5.650;2023-07-31T07:10:14;21.2;67.3
78467;SHT31;67759;51.972;5.650;2023-07-31T07:12:43;21.2;67.7
78467;SHT31;67759;51.972;5.650;2023-07-31T07:15:15;21.2;67.6
78467;SHT31;67759;51.972;5.650;2023-07-31T07:17:44;21.2;67.4
78467;SHT31;67759;51.972;5.650;2023-07-31T07:20:14;21.2;67.3
78467;SHT31;67759;51.972;5.650;2023-07-31T07:22:44;21.2;67.2
78467;SHT31;67759;51.972;5.650;2023-07-31T07:25:14;21.2;67.3
78467;SHT31;67759;51.972;5.650;2023-07-31T07:27:43;21.2;67.3
78467;SHT31;67759;51.972;5.650;2023-07-31T07:30:13;21.2;67.5
78467;SHT31;67759;51.972;5.650;2023-07-31T07:32:45;21.2;67.4
78467;SHT31;67759;51.972;5.650;2023-07-31T07:35:15;21.2;67.3
78467;SHT31;67759;51.972;5.650;2023-07-31T07:37:44;21.2;67.4
78467;SHT31;67759;51.972;5.650;2023-07-31T07:40:14;21.3;67.4
78467;SHT31;67759;51.972;5.650;2023-07-31T07:42:43;21.3;67.2
78467;SHT31;67759;51.972;5.650;2023-07-31T07:45:13;21.3;67.0
78467;SHT31;67759;51.972;5.650;2023-07-31T07:47:43;21.4;66.8
78467;SHT31;67759;51.972;5.650;2023-07-31T07:50:13;21.4;67.0
78467;SHT31;67759;51.972;5.650;2023-07-31T07:52:44;21.4;66.9
78467;SHT31;67759;51.972;5.650;2023-07-31T07:55:13;21.4;67.1
78467;SHT31;67759;51.972;5.650;2023-07-31T07:57:43;21.5;66.8
78467;SHT31;67759;51.972;5.650;2023-07-31T08:00:15;21.5;66.6
78467;SHT31;67759;51.972;5.650;2023-07-31T08:02:45;21.6;66.7
78467;SHT31;67759;51.972;5.650;2023-07-31T08:05:15;21.6;66.4
78467;SHT31;67759;51.972;5.650;2023-07-31T08:07:45;21.7;66.4
78467;SHT31;67759;51.972;5.650;2023-07-31T08:10:15;21.7;66.0
78467;SHT31;67759;51.972;5.650;2023-07-31T08:12:45;21.8;66.5
78467;SHT31;67759;51.972;5.650;2023-07-31T08:15:15;21.8;66.4
78467;SHT31;67759;51.972;5.650;2023-07-31T08:17:44;21.8;66.1
78467;SHT31;67759;51.972;5.650;2023-07-31T08:20:14;21.9;66.1
78467;SHT31;67759;51.972;5.650;2023-07-31T08:22:43;21.9;66.1
78467;SHT31;67759;51.972;5.650;2023-07-31T08:25:14;22.0;66.2
78467;SHT31;67759;51.972;5.650;2023-07-31T08:27:44;22.0;66.1
78467;SHT31;67759;51.972;5.650;2023-07-31T08:30:14;22.0;66.0
78467;SHT31;67759;51.972;5.650;2023-07-31T08:32:44;22.1;66.4
78467;SHT31;67759;51.972;5.650;2023-07-31T08:35:13;22.1;65.9
78467;SHT31;67759;51.972;5.650;2023-07-31T08:37:43;22.2;65.8
78467;SHT31;67759;51.972;5.650;2023-07-31T08:40:13;22.2;65.8
78467;SHT31;67759;51.972;5.650;2023-07-31T08:42:49;22.3;65.7
78467;SHT31;67759;51.972;5.650;2023-07-31T08:45:19;22.3;65.9
78467;SHT31;67759;51.972;5.650;2023-07-31T08:47:50;22.3;66.0
78467;SHT31;67759;51.972;5.650;2023-07-31T08:50:21;22.4;65.7
78467;SHT31;67759;51.972;5.650;2023-07-31T08:52:52;22.4;65.5
78467;SHT31;67759;51.972;5.650;2023-07-31T08:55:24;22.4;65.3
78467;SHT31;67759;51.972;5.650;2023-07-31T08:57:56;22.3;65.7
78467;SHT31;67759;51.972;5.650;2023-07-31T09:00:26;22.3;65.8
78467;SHT31;67759;51.972;5.650;2023-07-31T09:03:00;22.3;66.0
78467;SHT31;67759;51.972;5.650;2023-07-31T09:05:31;22.2;66.1
78467;SHT31;67759;51.972;5.650;2023-07-31T09:08:02;22.2;65.7
78467;SHT31;67759;51.972;5.650;2023-07-31T09:10:34;22.2;66.2
78467;SHT31;67759;51.972;5.650;2023-07-31T09:13:06;22.2;66.4
78467;SHT31;67759;51.972;5.650;2023-07-31T09:15:36;22.2;66.2
78467;SHT31;67759;51.972;5.650;2023-07-31T09:18:07;22.2;65.9
78467;SHT31;67759;51.972;5.650;2023-07-31T09:20:37;22.2;65.9
78467;SHT31;67759;51.972;5.650;2023-07-31T09:23:10;22.2;65.8
78467;SHT31;67759;51.972;5.650;2023-07-31T09:25:44;22.2;65.7
78467;SHT31;67759;51.972;5.650;2023-07-31T09:28:13;22.1;66.4
78467;SHT31;67759;51.972;5.650;2023-07-31T09:30:48;22.1;66.4
78467;SHT31;67759;51.972;5.650;2023-07-31T09:33:19;22.2;66.2
78467;SHT31;67759;51.972;5.650;2023-07-31T09:35:48;22.2;65.7
78467;SHT31;67759;51.972;5.650;2023-07-31T09:38:18;22.2;65.8
78467;SHT31;67759;51.972;5.650;2023-07-31T09:40:49;22.2;66.1
78467;SHT31;67759;51.972;5.650;2023-07-31T09:43:20;22.2;65.7
78467;SHT31;67759;51.972;5.650;2023-07-31T09:45:55;22.2;65.9
78467;SHT31;67759;51.972;5.650;2023-07-31T09:48:26;22.3;66.3
78467;SHT31;67759;51.972;5.650;2023-07-31T09:51:05;22.3;66.2
78467;SHT31;67759;51.972;5.650;2023-07-31T09:53:35;22.4;65.7
78467;SHT31;67759;51.972;5.650;2023-07-31T09:56:05;22.4;65.4
78467;SHT31;67759;51.972;5.650;2023-07-31T09:58:35;22.4;65.3
78467;SHT31;67759;51.972;5.650;2023-07-31T10:01:05;22.5;64.8
78467;SHT31;67759;51.972;5.650;2023-07-31T10:03:36;22.5;64.8
78467;SHT31;67759;51.972;5.650;2023-07-31T10:06:09;22.5;64.6
78467;SHT31;67759;51.972;5.650;2023-07-31T10:08:40;22.5;64.7
78467;SHT31;67759;51.972;5.650;2023-07-31T10:11:13;22.6;64.7
78467;SHT31;67759;51.972;5.650;2023-07-31T10:13:44;22.6;64.9
78467;SHT31;67759;51.972;5.650;2023-07-31T10:16:15;22.7;65.0
78467;SHT31;67759;51.972;5.650;2023-07-31T10:18:46;22.8;64.2
78467;SHT31;67759;51.972;5.650;2023-07-31T10:21:16;22.9;63.7
78467;SHT31;67759;51.972;5.650;2023-07-31T10:23:47;22.9;63.8
78467;SHT31;67759;51.972;5.650;2023-07-31T10:26:19;23.0;63.4
78467;SHT31;67759;51.972;5.650;2023-07-31T10:28:54;23.0;63.5
78467;SHT31;67759;51.972;5.650;2023-07-31T10:31:24;23.1;63.3
78467;SHT31;67759;51.972;5.650;2023-07-31T10:33:56;23.2;63.6
78467;SHT31;67759;51.972;5.650;2023-07-31T10:36:26;23.2;63.2
78467;SHT31;67759;51.972;5.650;2023-07-31T10:38:57;23.3;62.9
78467;SHT31;67759;51.972;5.650;2023-07-31T10:41:30;23.3;63.0
78467;SHT31;67759;51.972;5.650;2023-07-31T10:44:00;23.3;63.0
78467;SHT31;67759;51.972;5.650;2023-07-31T10:46:33;23.4;62.8
78467;SHT31;67759;51.972;5.650;2023-07-31T10:49:03;23.4;63.1
78467;SHT31;67759;51.972;5.650;2023-07-31T10:51:36;23.4;63.1
78467;SHT31;67759;51.972;5.650;2023-07-31T10:54:14;23.4;64.0
78467;SHT31;67759;51.972;5.650;2023-07-31T10:56:46;23.4;64.1
78467;SHT31;67759;51.972;5.650;2023-07-31T10:59:16;23.4;63.5
78467;SHT31;67759;51.972;5.650;2023-07-31T11:01:55;23.4;63.2
78467;SHT31;67759;51.972;5.650;2023-07-31T11:04:26;23.4;63.2
78467;SHT31;67759;51.972;5.650;2023-07-31T11:06:59;23.4;63.7
78467;SHT31;67759;51.972;5.650;2023-07-31T11:09:32;23.4;63.7
78467;SHT31;67759;51.972;5.650;2023-07-31T11:12:02;23.4;64.3
78467;SHT31;67759;51.972;5.650;2023-07-31T11:14:32;23.4;63.5
78467;SHT31;67759;51.972;5.650;2023-07-31T11:17:05;23.4;63.8
78467;SHT31;67759;51.972;5.650;2023-07-31T11:19:38;23.3;64.5
78467;SHT31;67759;51.972;5.650;2023-07-31T11:22:09;23.3;65.3
78467;SHT31;67759;51.972;5.650;2023-07-31T11:24:39;23.3;65.0
78467;SHT31;67759;51.972;5.650;2023-07-31T11:27:09;23.3;64.8
78467;SHT31;67759;51.972;5.650;2023-07-31T11:29:40;23.3;64.8
78467;SHT31;67759;51.972;5.650;2023-07-31T11:32:17;23.3;64.4
78467;SHT31;67759;51.972;5.650;2023-07-31T11:34:54;23.3;64.3
78467;SHT31;67759;51.972;5.650;2023-07-31T11:37:24;23.4;64.1
78467;SHT31;67759;51.972;5.650;2023-07-31T11:40:03;23.4;64.3
78467;SHT31;67759;51.972;5.650;2023-07-31T11:42:32;23.5;63.8
78467;SHT31;67759;51.972;5.650;2023-07-31T11:45:04;23.6;63.8
78467;SHT31;67759;51.972;5.650;2023-07-31T11:47:35;23.6;64.3
78467;SHT31;67759;51.972;5.650;2023-07-31T11:50:07;23.7;63.5
78467;SHT31;67759;51.972;5.650;2023-07-31T11:52:43;23.8;63.2
78467;SHT31;67759;51.972;5.650;2023-07-31T11:55:15;23.9;63.3
78467;SHT31;67759;51.972;5.650;2023-07-31T11:57:48;24.1;62.2
78467;SHT31;67759;51.972;5.650;2023-07-31T12:00:19;24.3;61.3
78467;SHT31;67759;51.972;5.650;2023-07-31T12:02:50;24.5;60.2
78467;SHT31;67759;51.972;5.650;2023-07-31T12:05:22;24.5;59.6
78467;SHT31;67759;51.972;5.650;2023-07-31T12:07:54;24.6;59.4
78467;SHT31;67759;51.972;5.650;2023-07-31T12:10:27;24.6;59.1
78467;SHT31;67759;51.972;5.650;2023-07-31T12:12:59;24.6;59.4
78467;SHT31;67759;51.972;5.650;2023-07-31T12:15:37;24.6;60.0
78467;SHT31;67759;51.972;5.650;2023-07-31T12:18:09;24.7;59.8
78467;SHT31;67759;51.972;5.650;2023-07-31T12:20:45;24.7;59.9
78467;SHT31;67759;51.972;5.650;2023-07-31T12:23:17;24.8;59.8
78467;SHT31;67759;51.972;5.650;2023-07-31T12:26:01;24.8;59.7
78467;SHT31;67759;51.972;5.650;2023-07-31T12:28:35;24.7;59.6
78467;SHT31;67759;51.972;5.650;2023-07-31T12:31:08;24.7;59.7
78467;SHT31;67759;51.972;5.650;2023-07-31T12:33:40;24.6;60.0
78467;SHT31;67759;51.972;5.650;2023-07-31T12:36:11;24.6;60.2
78467;SHT31;67759;51.972;5.650;2023-07-31T12:38:42;24.5;60.5
78467;SHT31;67759;51.972;5.650;2023-07-31T12:41:12;24.5;60.7
78467;SHT31;67759;51.972;5.650;2023-07-31T12:43:44;24.5;60.8
78467;SHT31;67759;51.972;5.650;2023-07-31T12:46:14;24.5;61.3
78467;SHT31;67759;51.972;5.650;2023-07-31T12:48:46;24.5;61.3
78467;SHT31;67759;51.972;5.650;2023-07-31T12:51:16;24.6;61.1
78467;SHT31;67759;51.972;5.650;2023-07-31T12:53:45;24.6;61.0
78467;SHT31;67759;51.972;5.650;2023-07-31T12:56:15;24.6;60.7
78467;SHT31;67759;51.972;5.650;2023-07-31T12:58:45;24.7;60.9
78467;SHT31;67759;51.972;5.650;2023-07-31T13:01:14;24.7;60.6
78467;SHT31;67759;51.972;5.650;2023-07-31T13:03:44;24.7;60.0
78467;SHT31;67759;51.972;5.650;2023-07-31T13:06:14;24.7;59.9
78467;SHT31;67759;51.972;5.650;2023-07-31T13:08:43;24.6;60.0
78467;SHT31;67759;51.972;5.650;2023-07-31T13:11:13;24.6;59.7
78467;SHT31;67759;51.972;5.650;2023-07-31T13:13:42;24.6;60.0
78467;SHT31;67759;51.972;5.650;2023-07-31T13:16:12;24.5;60.3
78467;SHT31;67759;51.972;5.650;2023-07-31T13:18:41;24.5;60.2
78467;SHT31;67759;51.972;5.650;2023-07-31T13:21:11;24.5;60.5
78467;SHT31;67759;51.972;5.650;2023-07-31T13:23:41;24.5;60.6
78467;SHT31;67759;51.972;5.650;2023-07-31T13:26:10;24.5;60.8
78467;SHT31;67759;51.972;5.650;2023-07-31T13:28:42;24.6;60.3
78467;SHT31;67759;51.972;5.650;2023-07-31T13:31:11;24.6;59.7
78467;SHT31;67759;51.972;5.650;2023-07-31T13:33:43;24.6;59.8
78467;SHT31;67759;51.972;5.650;2023-07-31T13:36:12;24.6;60.6
78467;SHT31;67759;51.972;5.650;2023-07-31T13:38:42;24.6;60.2
78467;SHT31;67759;51.972;5.650;2023-07-31T13:41:11;24.6;60.5
78467;SHT31;67759;51.972;5.650;2023-07-31T13:43:41;24.5;60.9
78467;SHT31;67759;51.972;5.650;2023-07-31T13:46:11;24.3;60.9
78467;SHT31;67759;51.972;5.650;2023-07-31T13:48:40;24.2;61.7
78467;SHT31;67759;51.972;5.650;2023-07-31T13:51:10;24.1;62.4
78467;SHT31;67759;51.972;5.650;2023-07-31T13:53:39;24.0;62.9
78467;SHT31;67759;51.972;5.650;2023-07-31T13:56:09;23.9;62.9
78467;SHT31;67759;51.972;5.650;2023-07-31T13:58:38;23.8;63.2
78467;SHT31;67759;51.972;5.650;2023-07-31T14:01:08;23.8;63.3
78467;SHT31;67759;51.972;5.650;2023-07-31T14:03:38;23.7;63.5
78467;SHT31;67759;51.972;5.650;2023-07-31T14:06:07;23.7;63.8
78467;SHT31;67759;51.972;5.650;2023-07-31T14:08:38;23.7;64.0
78467;SHT31;67759;51.972;5.650;2023-07-31T14:11:09;23.7;64.0
78467;SHT31;67759;51.972;5.650;2023-07-31T14:13:39;23.6;63.7
78467;SHT31;67759;51.972;5.650;2023-07-31T14:16:09;23.6;63.9
78467;SHT31;67759;51.972;5.650;2023-07-31T14:18:38;23.6;64.2
78467;SHT31;67759;51.972;5.650;2023-07-31T14:21:08;23.6;63.9
78467;SHT31;67759;51.972;5.650;2023-07-31T14:23:38;23.6;63.9
78467;SHT31;67759;51.972;5.650;2023-07-31T14:26:07;23.6;64.1
78467;SHT31;67759;51.972;5.650;2023-07-31T14:28:37;23.7;63.8
78467;SHT31;67759;51.972;5.650;2023-07-31T14:31:07;23.7;63.5
78467;SHT31;67759;51.972;5.650;2023-07-31T14:33:37;23.7;63.7
78467;SHT31;67759;51.972;5.650;2023-07-31T14:36:07;23.7;63.9
78467;SHT31;67759;51.972;5.650;2023-07-31T14:38:36;23.7;63.6
78467;SHT31;67759;51.972;5.650;2023-07-31T14:41:06;23.7;63.8
78467;SHT31;67759;51.972;5.650;2023-07-31T14:43:36;23.7;63.5
78467;SHT31;67759;51.972;5.650;2023-07-31T14:46:05;23.7;63.4
78467;SHT31;67759;51.972;5.650;2023-07-31T14:48:35;23.7;63.1
78467;SHT31;67759;51.972;5.650;2023-07-31T14:51:04;23.7;63.4
78467;SHT31;67759;51.972;5.650;2023-07-31T14:53:34;23.8;63.3
78467;SHT31;67759;51.972;5.650;2023-07-31T14:56:04;23.8;63.4
78467;SHT31;67759;51.972;5.650;2023-07-31T14:58:34;23.8;63.2
78467;SHT31;67759;51.972;5.650;2023-07-31T15:01:03;23.8;63.3
78467;SHT31;67759;51.972;5.650;2023-07-31T15:03:35;23.8;63.3
78467;SHT31;67759;51.972;5.650;2023-07-31T15:06:04;23.8;63.0
78467;SHT31;67759;51.972;5.650;2023-07-31T15:08:35;23.8;63.0
78467;SHT31;67759;51.972;5.650;2023-07-31T15:11:05;23.7;63.1
78467;SHT31;67759;51.972;5.650;2023-07-31T15:13:35;23.7;63.4
78467;SHT31;67759;51.972;5.650;2023-07-31T15:16:04;23.7;63.3
78467;SHT31;67759;51.972;5.650;2023-07-31T15:18:34;23.7;63.0
78467;SHT31;67759;51.972;5.650;2023-07-31T15:21:03;23.7;63.2
78467;SHT31;67759;51.972;5.650;2023-07-31T15:23:34;23.8;63.2
78467;SHT31;67759;51.972;5.650;2023-07-31T15:26:05;23.8;63.1
78467;SHT31;67759;51.972;5.650;2023-07-31T15:28:35;23.8;63.1
78467;SHT31;67759;51.972;5.650;2023-07-31T15:31:06;23.8;63.3
78467;SHT31;67759;51.972;5.650;2023-07-31T15:33:36;23.8;63.3
78467;SHT31;67759;51.972;5.650;2023-07-31T15:36:06;23.8;63.1
78467;SHT31;67759;51.972;5.650;2023-07-31T15:38:38;23.7;63.4
78467;SHT31;67759;51.972;5.650;2023-07-31T15:41:08;23.7;63.7
78467;SHT31;67759;51.972;5.650;2023-07-31T15:43:37;23.6;64.1
78467;SHT31;67759;51.972;5.650;2023-07-31T15:46:07;23.5;64.3
78467;SHT31;67759;51.972;5.650;2023-07-31T15:48:38;23.5;64.4
78467;SHT31;67759;51.972;5.650;2023-07-31T15:51:08;23.5;64.4
78467;SHT31;67759;51.972;5.650;2023-07-31T15:53:37;23.4;64.3
78467;SHT31;67759;51.972;5.650;2023-07-31T15:56:07;23.4;64.5
78467;SHT31;67759;51.972;5.650;2023-07-31T15:58:37;23.4;64.4
78467;SHT31;67759;51.972;5.650;2023-07-31T16:01:08;23.3;64.5
78467;SHT31;67759;51.972;5.650;2023-07-31T16:03:37;23.3;64.8
78467;SHT31;67759;51.972;5.650;2023-07-31T16:06:07;23.3;64.5
78467;SHT31;67759;51.972;5.650;2023-07-31T16:08:37;23.2;64.8
78467;SHT31;67759;51.972;5.650;2023-07-31T16:11:09;23.2;65.0
78467;SHT31;67759;51.972;5.650;2023-07-31T16:13:39;23.1;65.2
78467;SHT31;67759;51.972;5.650;2023-07-31T16:16:08;23.0;65.5
78467;SHT31;67759;51.972;5.650;2023-07-31T16:18:38;23.0;65.7
78467;SHT31;67759;51.972;5.650;2023-07-31T16:21:08;22.9;65.7
78467;SHT31;67759;51.972;5.650;2023-07-31T16:23:39;22.9;66.1